sensor_id;sensor_type;location;lat;lon;timestamp;pressure;altitude;pressure_sealevel;temperature;humidity
74913;BME280;63878;55.624;37.304;2022-10-16T00:01:29;100170.31;;;7.52;64.56
74913;BME280;63878;55.624;37.304;2022-10-16T00:03:56;100162.56;;;7.50;57.43
74913;BME280;63878;55.624;37.304;2022-10-16T00:06:23;100168.19;;;7.61;62.57
74913;BME280;63878;55.624;37.304;2022-10-16T00:08:49;100173.06;;;7.47;56.50
74913;BME280;63878;55.624;37.304;2022-10-16T00:11:22;100148.22;;;7.38;56.93
74913;BME280;63878;55.624;37.304;2022-10-16T00:13:50;100179.41;;;7.63;59.38
74913;BME280;63878;55.624;37.304;2022-10-16T00:16:16;100178.19;;;7.72;64.01
74913;BME280;63878;55.624;37.304;2022-10-16T00:18:42;100173.34;;;7.85;64.44
74913;BME280;63878;55.624;37.304;2022-10-16T00:21:17;100174.88;;;7.90;62.89
74913;BME280;63878;55.624;37.304;2022-10-16T00:23:43;100171.94;;;7.98;62.93
74913;BME280;63878;55.624;37.304;2022-10-16T00:26:12;100183.09;;;8.02;61.56
74913;BME280;63878;55.624;37.304;2022-10-16T00:28:38;100183.84;;;7.83;55.41
74913;BME280;63878;55.624;37.304;2022-10-16T00:31:10;100177.03;;;7.79;57.50
74913;BME280;63878;55.624;37.304;2022-10-16T00:33:38;100182.72;;;7.45;54.98
74913;BME280;63878;55.624;37.304;2022-10-16T00:36:05;100183.34;;;7.28;56.73
74913;BME280;63878;55.624;37.304;2022-10-16T00:38:32;100189.47;;;7.27;60.82
74913;BME280;63878;55.624;37.304;2022-10-16T00:40:58;100188.19;;;7.16;57.04
74913;BME280;63878;55.624;37.304;2022-10-16T00:43:39;100180.94;;;7.24;56.55
74913;BME280;63878;55.624;37.304;2022-10-16T00:46:38;100189.97;;;7.37;59.73
74913;BME280;63878;55.624;37.304;2022-10-16T00:49:14;100188.28;;;7.36;58.89
74913;BME280;63878;55.624;37.304;2022-10-16T00:51:47;100189.47;;;7.27;59.15
74913;BME280;63878;55.624;37.304;2022-10-16T00:54:30;100188.69;;;7.25;58.86
74913;BME280;63878;55.624;37.304;2022-10-16T00:56:59;100193.41;;;7.16;56.84
74913;BME280;63878;55.624;37.304;2022-10-16T00:59:29;100197.78;;;7.14;63.94
74913;BME280;63878;55.624;37.304;2022-10-16T01:01:56;100195.66;;;7.25;64.43
74913;BME280;63878;55.624;37.304;2022-10-16T01:04:23;100198.19;;;7.26;62.44
74913;BME280;63878;55.624;37.304;2022-10-16T01:12:32;100195.28;;;7.34;56.99
74913;BME280;63878;55.624;37.304;2022-10-16T01:15:10;100200.59;;;7.54;57.62
74913;BME280;63878;55.624;37.304;2022-10-16T01:17:42;100204.34;;;7.47;58.98
74913;BME280;63878;55.624;37.304;2022-10-16T01:20:29;100202.50;;;7.51;63.47
74913;BME280;63878;55.624;37.304;2022-10-16T01:23:10;100204.81;;;7.35;57.23
74913;BME280;63878;55.624;37.304;2022-10-16T01:28:19;100205.38;;;7.20;58.94
74913;BME280;63878;55.624;37.304;2022-10-16T01:30:47;100212.91;;;7.04;60.17
74913;BME280;63878;55.624;37.304;2022-10-16T01:33:21;100214.03;;;6.97;60.90
74913;BME280;63878;55.624;37.304;2022-10-16T01:35:52;100213.84;;;6.78;56.67
74913;BME280;63878;55.624;37.304;2022-10-16T01:38:29;100212.03;;;6.80;57.77
74913;BME280;63878;55.624;37.304;2022-10-16T01:41:00;100213.47;;;6.64;57.61
74913;BME280;63878;55.624;37.304;2022-10-16T01:43:49;100206.13;;;6.50;58.60
74913;BME280;63878;55.624;37.304;2022-10-16T01:46:18;100201.28;;;6.13;59.56
74913;BME280;63878;55.624;37.304;2022-10-16T01:48:46;100212.84;;;5.74;60.42
74913;BME280;63878;55.624;37.304;2022-10-16T01:51:13;100224.25;;;5.70;60.44
74913;BME280;63878;55.624;37.304;2022-10-16T01:53:41;100220.09;;;5.65;60.44
74913;BME280;63878;55.624;37.304;2022-10-16T01:56:12;100226.50;;;5.53;61.57
74913;BME280;63878;55.624;37.304;2022-10-16T01:58:48;100216.78;;;5.60;61.13
74913;BME280;63878;55.624;37.304;2022-10-16T02:04:45;100225.88;;;5.45;61.33
74913;BME280;63878;55.624;37.304;2022-10-16T02:07:12;100221.25;;;5.25;61.64
74913;BME280;63878;55.624;37.304;2022-10-16T02:09:38;100225.53;;;5.26;61.72
74913;BME280;63878;55.624;37.304;2022-10-16T02:12:26;100233.16;;;5.32;61.87
74913;BME280;63878;55.624;37.304;2022-10-16T02:14:52;100218.16;;;5.12;62.68
74913;BME280;63878;55.624;37.304;2022-10-16T02:17:19;100228.28;;;5.22;62.38
74913;BME280;63878;55.624;37.304;2022-10-16T02:19:46;100219.50;;;4.95;62.82
74913;BME280;63878;55.624;37.304;2022-10-16T02:22:19;100225.09;;;5.12;62.63
74913;BME280;63878;55.624;37.304;2022-10-16T02:24:51;100228.59;;;5.11;62.39
74913;BME280;63878;55.624;37.304;2022-10-16T02:30:29;100236.03;;;4.92;62.98
74913;BME280;63878;55.624;37.304;2022-10-16T02:33:00;100230.81;;;4.92;63.25
74913;BME280;63878;55.624;37.304;2022-10-16T02:35:27;100234.22;;;4.96;62.52
74913;BME280;63878;55.624;37.304;2022-10-16T02:37:53;100236.09;;;5.22;62.08
74913;BME280;63878;55.624;37.304;2022-10-16T02:40:21;100230.38;;;5.09;62.53
74913;BME280;63878;55.624;37.304;2022-10-16T02:42:50;100238.81;;;5.17;62.07
74913;BME280;63878;55.624;37.304;2022-10-16T02:45:17;100244.22;;;5.08;62.56
74913;BME280;63878;55.624;37.304;2022-10-16T02:47:42;100236.19;;;4.86;62.92
74913;BME280;63878;55.624;37.304;2022-10-16T02:50:08;100251.22;;;4.73;63.08
74913;BME280;63878;55.624;37.304;2022-10-16T02:52:34;100244.38;;;4.71;63.15
74913;BME280;63878;55.624;37.304;2022-10-16T02:55:00;100241.41;;;4.84;63.22
74913;BME280;63878;55.624;37.304;2022-10-16T02:57:26;100243.28;;;4.79;63.03
74913;BME280;63878;55.624;37.304;2022-10-16T02:59:52;100243.97;;;4.86;62.81
74913;BME280;63878;55.624;37.304;2022-10-16T03:02:20;100220.03;;;4.75;62.74
74913;BME280;63878;55.624;37.304;2022-10-16T03:04:46;100248.06;;;4.95;63.13
74913;BME280;63878;55.624;37.304;2022-10-16T03:07:12;100241.94;;;4.97;62.54
74913;BME280;63878;55.624;37.304;2022-10-16T03:09:38;100254.25;;;4.90;62.63
74913;BME280;63878;55.624;37.304;2022-10-16T03:12:04;100243.06;;;4.88;62.26
74913;BME280;63878;55.624;37.304;2022-10-16T03:14:29;100253.28;;;4.93;62.93
74913;BME280;63878;55.624;37.304;2022-10-16T03:16:55;100253.44;;;4.87;63.91
74913;BME280;63878;55.624;37.304;2022-10-16T03:19:21;100258.97;;;4.75;62.37
74913;BME280;63878;55.624;37.304;2022-10-16T03:21:47;100258.97;;;4.75;63.13
74913;BME280;63878;55.624;37.304;2022-10-16T03:24:13;100256.25;;;4.79;62.96
74913;BME280;63878;55.624;37.304;2022-10-16T03:26:40;100263.63;;;4.62;63.22
74913;BME280;63878;55.624;37.304;2022-10-16T03:29:05;100253.13;;;4.67;63.53
74913;BME280;63878;55.624;37.304;2022-10-16T03:31:31;100263.50;;;4.67;63.61
74913;BME280;63878;55.624;37.304;2022-10-16T03:33:57;100258.31;;;4.67;63.45
74913;BME280;63878;55.624;37.304;2022-10-16T03:36:23;100263.78;;;4.56;63.61
74913;BME280;63878;55.624;37.304;2022-10-16T03:38:49;100265.53;;;4.55;63.83
74913;BME280;63878;55.624;37.304;2022-10-16T03:41:15;100260.34;;;4.55;64.25
74913;BME280;63878;55.624;37.304;2022-10-16T03:43:41;100268.28;;;4.49;63.80
74913;BME280;63878;55.624;37.304;2022-10-16T03:46:07;100262.41;;;4.41;64.33
74913;BME280;63878;55.624;37.304;2022-10-16T03:48:33;100259.09;;;4.36;64.34
74913;BME280;63878;55.624;37.304;2022-10-16T03:50:59;100259.09;;;4.36;64.30
74913;BME280;63878;55.624;37.304;2022-10-16T03:53:25;100263.44;;;4.35;63.88
74913;BME280;63878;55.624;37.304;2022-10-16T03:55:51;100260.56;;;4.46;65.06
74913;BME280;63878;55.624;37.304;2022-10-16T03:58:17;100262.81;;;4.60;63.52
74913;BME280;63878;55.624;37.304;2022-10-16T04:00:44;100262.25;;;4.81;63.41
74913;BME280;63878;55.624;37.304;2022-10-16T04:03:14;100268.91;;;4.91;62.44
74913;BME280;63878;55.624;37.304;2022-10-16T04:05:40;100259.94;;;5.03;62.27
74913;BME280;63878;55.624;37.304;2022-10-16T04:08:06;100268.00;;;5.25;64.32
74913;BME280;63878;55.624;37.304;2022-10-16T04:10:32;100265.69;;;5.14;62.52
74913;BME280;63878;55.624;37.304;2022-10-16T04:12:58;100267.03;;;5.29;62.52
74913;BME280;63878;55.624;37.304;2022-10-16T04:15:24;100265.63;;;5.49;66.22
74913;BME280;63878;55.624;37.304;2022-10-16T04:17:51;100266.56;;;5.74;65.25
74913;BME280;63878;55.624;37.304;2022-10-16T04:20:17;100261.00;;;5.86;62.20
74913;BME280;63878;55.624;37.304;2022-10-16T04:22:43;100261.53;;;5.99;61.55
74913;BME280;63878;55.624;37.304;2022-10-16T04:25:10;100262.66;;;6.18;59.66
74913;BME280;63878;55.624;37.304;2022-10-16T04:27:36;100268.00;;;6.14;59.96
74913;BME280;63878;55.624;37.304;2022-10-16T04:30:03;100265.81;;;6.28;64.33
74913;BME280;63878;55.624;37.304;2022-10-16T04:32:29;100274.69;;;6.22;59.74
74913;BME280;63878;55.624;37.304;2022-10-16T04:34:55;100281.19;;;6.36;59.51
74913;BME280;63878;55.624;37.304;2022-10-16T04:37:27;100277.69;;;6.37;59.12
74913;BME280;63878;55.624;37.304;2022-10-16T04:39:53;100276.88;;;6.07;58.15
74913;BME280;63878;55.624;37.304;2022-10-16T04:42:20;100270.50;;;6.17;60.70
74913;BME280;63878;55.624;37.304;2022-10-16T04:44:46;100275.53;;;6.23;60.93
74913;BME280;63878;55.624;37.304;2022-10-16T04:47:13;100282.69;;;6.43;59.25
74913;BME280;63878;55.624;37.304;2022-10-16T04:49:39;100288.34;;;6.55;58.08
74913;BME280;63878;55.624;37.304;2022-10-16T04:52:05;100278.72;;;6.31;57.08
74913;BME280;63878;55.624;37.304;2022-10-16T04:54:32;100279.28;;;6.13;58.23
74913;BME280;63878;55.624;37.304;2022-10-16T04:56:58;100289.88;;;6.07;60.97
74913;BME280;63878;55.624;37.304;2022-10-16T04:59:25;100288.06;;;6.10;59.93
74913;BME280;63878;55.624;37.304;2022-10-16T05:01:52;100287.88;;;6.15;59.45
74913;BME280;63878;55.624;37.304;2022-10-16T05:04:18;100281.81;;;6.16;58.70
74913;BME280;63878;55.624;37.304;2022-10-16T05:06:44;100282.94;;;6.07;57.74
74913;BME280;63878;55.624;37.304;2022-10-16T05:09:10;100278.16;;;5.93;58.68
74913;BME280;63878;55.624;37.304;2022-10-16T05:11:36;100295.38;;;5.97;60.64
74913;BME280;63878;55.624;37.304;2022-10-16T05:14:02;100285.47;;;6.10;58.60
74913;BME280;63878;55.624;37.304;2022-10-16T05:16:28;100286.34;;;6.09;57.99
74913;BME280;63878;55.624;37.304;2022-10-16T05:18:54;100286.63;;;6.00;57.63
74913;BME280;63878;55.624;37.304;2022-10-16T05:21:20;100292.47;;;6.07;57.66
74913;BME280;63878;55.624;37.304;2022-10-16T05:23:46;100292.81;;;6.24;59.74
74913;BME280;63878;55.624;37.304;2022-10-16T05:26:12;100296.94;;;6.31;62.93
74913;BME280;63878;55.624;37.304;2022-10-16T05:28:38;100303.66;;;6.10;58.10
74913;BME280;63878;55.624;37.304;2022-10-16T05:31:08;100297.19;;;5.95;58.95
74913;BME280;63878;55.624;37.304;2022-10-16T05:33:35;100301.75;;;5.86;59.38
74913;BME280;63878;55.624;37.304;2022-10-16T05:36:05;100299.38;;;6.08;59.97
74913;BME280;63878;55.624;37.304;2022-10-16T05:38:31;100300.16;;;6.11;62.03
74913;BME280;63878;55.624;37.304;2022-10-16T05:40:57;100300.28;;;6.07;58.95
74913;BME280;63878;55.624;37.304;2022-10-16T05:43:23;100296.09;;;6.03;62.71
74913;BME280;63878;55.624;37.304;2022-10-16T05:46:05;100289.00;;;6.34;61.52
74913;BME280;63878;55.624;37.304;2022-10-16T05:48:32;100304.69;;;6.59;61.25
74913;BME280;63878;55.624;37.304;2022-10-16T05:51:03;100296.94;;;6.58;58.21
74913;BME280;63878;55.624;37.304;2022-10-16T05:53:31;100307.75;;;6.45;57.73
74913;BME280;63878;55.624;37.304;2022-10-16T05:55:57;100312.84;;;6.48;57.68
74913;BME280;63878;55.624;37.304;2022-10-16T05:58:24;100307.34;;;6.58;63.65
74913;BME280;63878;55.624;37.304;2022-10-16T06:00:57;100309.38;;;6.76;62.00
74913;BME280;63878;55.624;37.304;2022-10-16T06:03:24;100320.72;;;6.73;60.26
74913;BME280;63878;55.624;37.304;2022-10-16T06:05:50;100312.81;;;7.01;64.18
74913;BME280;63878;55.624;37.304;2022-10-16T06:08:17;100310.84;;;6.83;61.54
74913;BME280;63878;55.624;37.304;2022-10-16T06:10:43;100307.88;;;6.94;59.99
74913;BME280;63878;55.624;37.304;2022-10-16T06:13:10;100323.56;;;7.17;64.04
74913;BME280;63878;55.624;37.304;2022-10-16T06:15:36;100327.41;;;7.32;64.85
74913;BME280;63878;55.624;37.304;2022-10-16T06:18:01;100318.19;;;7.22;56.57
74913;BME280;63878;55.624;37.304;2022-10-16T06:20:27;100319.56;;;7.32;57.87
74913;BME280;63878;55.624;37.304;2022-10-16T06:22:53;100319.84;;;7.24;58.57
74913;BME280;63878;55.624;37.304;2022-10-16T06:25:20;100321.75;;;7.44;64.50
74913;BME280;63878;55.624;37.304;2022-10-16T06:27:45;100319.13;;;7.68;64.50
74913;BME280;63878;55.624;37.304;2022-10-16T06:30:11;100325.38;;;7.87;64.11
74913;BME280;63878;55.624;37.304;2022-10-16T06:32:37;100333.41;;;7.82;60.56
74913;BME280;63878;55.624;37.304;2022-10-16T06:35:04;100330.53;;;7.88;62.66
74913;BME280;63878;55.624;37.304;2022-10-16T06:37:30;100320.06;;;7.90;65.75
74913;BME280;63878;55.624;37.304;2022-10-16T06:39:55;100329.75;;;8.10;64.37
74913;BME280;63878;55.624;37.304;2022-10-16T06:42:21;100315.34;;;8.22;65.49
74913;BME280;63878;55.624;37.304;2022-10-16T06:44:47;100332.06;;;8.17;64.07
74913;BME280;63878;55.624;37.304;2022-10-16T06:47:12;100324.09;;;8.20;64.85
74913;BME280;63878;55.624;37.304;2022-10-16T06:49:38;100325.75;;;8.23;64.08
74913;BME280;63878;55.624;37.304;2022-10-16T06:52:04;100336.72;;;8.09;59.50
74913;BME280;63878;55.624;37.304;2022-10-16T06:54:30;100332.50;;;8.05;63.29
74913;BME280;63878;55.624;37.304;2022-10-16T06:56:56;100338.41;;;8.10;62.37
74913;BME280;63878;55.624;37.304;2022-10-16T06:59:22;100334.34;;;8.03;60.87
74913;BME280;63878;55.624;37.304;2022-10-16T07:01:48;100337.84;;;8.02;57.46
74913;BME280;63878;55.624;37.304;2022-10-16T07:04:14;100338.34;;;8.12;64.36
74913;BME280;63878;55.624;37.304;2022-10-16T07:06:40;100335.44;;;8.19;60.40
74913;BME280;63878;55.624;37.304;2022-10-16T07:09:09;100329.22;;;8.45;63.76
74913;BME280;63878;55.624;37.304;2022-10-16T07:11:37;100330.44;;;8.59;63.97
74913;BME280;63878;55.624;37.304;2022-10-16T07:14:03;100323.50;;;8.80;63.45
74913;BME280;63878;55.624;37.304;2022-10-16T07:16:30;100324.69;;;8.93;64.61
74913;BME280;63878;55.624;37.304;2022-10-16T07:19:01;100333.03;;;9.01;64.92
74913;BME280;63878;55.624;37.304;2022-10-16T07:21:29;100335.47;;;9.06;64.51
74913;BME280;63878;55.624;37.304;2022-10-16T07:23:59;100334.88;;;8.99;59.13
74913;BME280;63878;55.624;37.304;2022-10-16T07:26:26;100341.59;;;9.05;65.58
74913;BME280;63878;55.624;37.304;2022-10-16T07:28:51;100338.06;;;9.06;66.00
74913;BME280;63878;55.624;37.304;2022-10-16T07:31:19;100340.28;;;9.15;66.38
74913;BME280;63878;55.624;37.304;2022-10-16T07:33:45;100338.00;;;9.07;63.52
74913;BME280;63878;55.624;37.304;2022-10-16T07:36:12;100337.50;;;9.19;64.36
74913;BME280;63878;55.624;37.304;2022-10-16T07:38:38;100349.13;;;9.33;63.38
74913;BME280;63878;55.624;37.304;2022-10-16T07:41:09;100341.41;;;9.50;63.71
74913;BME280;63878;55.624;37.304;2022-10-16T07:43:34;100353.66;;;9.48;61.61
74913;BME280;63878;55.624;37.304;2022-10-16T07:46:00;100342.84;;;9.37;57.00
74913;BME280;63878;55.624;37.304;2022-10-16T07:48:31;100347.78;;;9.43;62.43
74913;BME280;63878;55.624;37.304;2022-10-16T07:51:07;100350.03;;;9.52;63.35
74913;BME280;63878;55.624;37.304;2022-10-16T07:53:33;100350.03;;;9.52;65.51
74913;BME280;63878;55.624;37.304;2022-10-16T07:56:04;100344.25;;;9.64;65.07
74913;BME280;63878;55.624;37.304;2022-10-16T07:58:30;100337.72;;;9.54;59.77
74913;BME280;63878;55.624;37.304;2022-10-16T08:00:56;100337.81;;;9.71;65.16
74913;BME280;63878;55.624;37.304;2022-10-16T08:03:23;100348.34;;;9.89;64.71
74913;BME280;63878;55.624;37.304;2022-10-16T08:05:49;100346.94;;;9.81;65.63
74913;BME280;63878;55.624;37.304;2022-10-16T08:08:17;100341.06;;;9.95;64.70
74913;BME280;63878;55.624;37.304;2022-10-16T08:10:42;100338.47;;;9.95;63.33
74913;BME280;63878;55.624;37.304;2022-10-16T08:13:09;100338.91;;;10.05;65.29
74913;BME280;63878;55.624;37.304;2022-10-16T08:15:34;100339.75;;;10.05;66.00
74913;BME280;63878;55.624;37.304;2022-10-16T08:18:04;100340.31;;;10.12;65.57
74913;BME280;63878;55.624;37.304;2022-10-16T08:20:30;100344.09;;;10.25;64.22
74913;BME280;63878;55.624;37.304;2022-10-16T08:22:56;100343.06;;;10.09;63.26
74913;BME280;63878;55.624;37.304;2022-10-16T08:25:23;100337.50;;;9.98;63.60
74913;BME280;63878;55.624;37.304;2022-10-16T08:27:50;100346.69;;;10.06;65.65
74913;BME280;63878;55.624;37.304;2022-10-16T08:30:18;100330.31;;;10.20;65.01
74913;BME280;63878;55.624;37.304;2022-10-16T08:32:43;100336.06;;;10.28;63.99
74913;BME280;63878;55.624;37.304;2022-10-16T08:35:10;100336.72;;;10.33;61.39
74913;BME280;63878;55.624;37.304;2022-10-16T08:37:37;100332.13;;;10.39;63.94
74913;BME280;63878;55.624;37.304;2022-10-16T08:40:05;100325.31;;;10.34;63.97
74913;BME280;63878;55.624;37.304;2022-10-16T08:42:35;100334.00;;;10.35;54.60
74913;BME280;63878;55.624;37.304;2022-10-16T08:48:17;100323.28;;;9.45;52.82
74913;BME280;63878;55.624;37.304;2022-10-16T08:50:47;100324.94;;;9.07;51.78
74913;BME280;63878;55.624;37.304;2022-10-16T08:53:20;100330.56;;;8.98;52.49
74913;BME280;63878;55.624;37.304;2022-10-16T08:55:52;100332.66;;;8.90;53.56
74913;BME280;63878;55.624;37.304;2022-10-16T08:58:25;100331.16;;;9.05;53.79
74913;BME280;63878;55.624;37.304;2022-10-16T09:01:16;100321.94;;;9.16;54.38
74913;BME280;63878;55.624;37.304;2022-10-16T09:04:08;100329.91;;;9.13;53.60
74913;BME280;63878;55.624;37.304;2022-10-16T09:12:30;100325.28;;;9.20;53.22
74913;BME280;63878;55.624;37.304;2022-10-16T09:15:32;100319.00;;;9.24;51.88
74913;BME280;63878;55.624;37.304;2022-10-16T09:20:42;100324.78;;;9.51;51.84
74913;BME280;63878;55.624;37.304;2022-10-16T09:25:46;100325.91;;;9.45;50.71
74913;BME280;63878;55.624;37.304;2022-10-16T09:28:12;100320.41;;;9.51;51.54
74913;BME280;63878;55.624;37.304;2022-10-16T09:30:38;100319.69;;;9.48;50.26
74913;BME280;63878;55.624;37.304;2022-10-16T09:33:04;100321.19;;;9.53;54.48
74913;BME280;63878;55.624;37.304;2022-10-16T09:35:45;100325.09;;;9.64;51.80
74913;BME280;63878;55.624;37.304;2022-10-16T09:38:31;100316.16;;;9.49;49.63
74913;BME280;63878;55.624;37.304;2022-10-16T09:41:01;100311.63;;;9.52;49.39
74913;BME280;63878;55.624;37.304;2022-10-16T09:43:35;100301.88;;;9.56;50.47
74913;BME280;63878;55.624;37.304;2022-10-16T09:46:07;100311.84;;;9.48;49.55
74913;BME280;63878;55.624;37.304;2022-10-16T09:48:38;100304.56;;;9.54;49.69
74913;BME280;63878;55.624;37.304;2022-10-16T09:51:19;100302.44;;;9.63;50.97
74913;BME280;63878;55.624;37.304;2022-10-16T09:53:46;100315.53;;;9.81;49.66
74913;BME280;63878;55.624;37.304;2022-10-16T09:56:29;100310.84;;;9.90;50.57
74913;BME280;63878;55.624;37.304;2022-10-16T09:58:59;100316.31;;;9.65;49.00
74913;BME280;63878;55.624;37.304;2022-10-16T10:01:37;100323.19;;;9.67;49.68
74913;BME280;63878;55.624;37.304;2022-10-16T10:04:05;100304.66;;;9.72;51.76
74913;BME280;63878;55.624;37.304;2022-10-16T10:06:37;100307.66;;;9.83;49.89
74913;BME280;63878;55.624;37.304;2022-10-16T10:09:19;100306.50;;;10.07;50.20
74913;BME280;63878;55.624;37.304;2022-10-16T10:11:53;100306.41;;;10.09;48.17
74913;BME280;63878;55.624;37.304;2022-10-16T10:14:42;100291.81;;;10.05;49.55
74913;BME280;63878;55.624;37.304;2022-10-16T10:22:31;100305.00;;;10.21;48.69
74913;BME280;63878;55.624;37.304;2022-10-16T10:25:01;100294.59;;;10.19;50.57
74913;BME280;63878;55.624;37.304;2022-10-16T10:30:22;100298.81;;;10.23;49.83
74913;BME280;63878;55.624;37.304;2022-10-16T10:38:53;100287.69;;;12.06;67.11
74913;BME280;63878;55.624;37.304;2022-10-16T10:41:32;100270.97;;;12.38;69.00
74913;BME280;63878;55.624;37.304;2022-10-16T10:47:12;100288.78;;;12.93;67.65
74913;BME280;63878;55.624;37.304;2022-10-16T10:49:50;100288.06;;;13.05;66.40
74913;BME280;63878;55.624;37.304;2022-10-16T10:52:34;100278.16;;;13.25;66.56
74913;BME280;63878;55.624;37.304;2022-10-16T11:01:12;100273.69;;;13.82;63.01
74913;BME280;63878;55.624;37.304;2022-10-16T11:06:50;100269.53;;;14.34;58.40
74913;BME280;63878;55.624;37.304;2022-10-16T11:09:28;100273.97;;;14.60;56.04
74913;BME280;63878;55.624;37.304;2022-10-16T11:14:36;100258.28;;;14.44;47.75
74913;BME280;63878;55.624;37.304;2022-10-16T11:17:33;100261.13;;;13.30;43.29
74913;BME280;63878;55.624;37.304;2022-10-16T11:20:23;100280.38;;;12.72;43.00
74913;BME280;63878;55.624;37.304;2022-10-16T11:22:56;100264.97;;;12.20;44.58
74913;BME280;63878;55.624;37.304;2022-10-16T11:25:32;100255.66;;;11.83;45.05
74913;BME280;63878;55.624;37.304;2022-10-16T11:28:14;100271.22;;;11.70;44.98
74913;BME280;63878;55.624;37.304;2022-10-16T11:33:36;100261.97;;;11.79;48.06
74913;BME280;63878;55.624;37.304;2022-10-16T11:36:40;100276.34;;;12.81;56.70
74913;BME280;63878;55.624;37.304;2022-10-16T11:44:43;100266.09;;;13.63;45.53
74913;BME280;63878;55.624;37.304;2022-10-16T11:47:27;100263.59;;;13.03;43.40
74913;BME280;63878;55.624;37.304;2022-10-16T11:50:01;100264.56;;;13.17;53.49
74913;BME280;63878;55.624;37.304;2022-10-16T11:52:36;100262.66;;;12.90;44.27
74913;BME280;63878;55.624;37.304;2022-10-16T11:55:29;100257.22;;;12.33;46.75
74913;BME280;63878;55.624;37.304;2022-10-16T11:58:01;100261.31;;;12.07;44.82
74913;BME280;63878;55.624;37.304;2022-10-16T12:00:41;100263.94;;;12.07;48.25
74913;BME280;63878;55.624;37.304;2022-10-16T12:03:12;100263.28;;;12.19;47.09
74913;BME280;63878;55.624;37.304;2022-10-16T12:05:55;100260.97;;;12.13;48.01
74913;BME280;63878;55.624;37.304;2022-10-16T12:08:23;100253.63;;;12.04;50.84
74913;BME280;63878;55.624;37.304;2022-10-16T12:10:54;100263.94;;;12.07;46.74
74913;BME280;63878;55.624;37.304;2022-10-16T12:13:33;100258.88;;;11.88;47.03
74913;BME280;63878;55.624;37.304;2022-10-16T12:18:38;100250.47;;;11.66;45.58
74913;BME280;63878;55.624;37.304;2022-10-16T12:21:05;100233.53;;;11.71;45.60
74913;BME280;63878;55.624;37.304;2022-10-16T12:23:32;100245.88;;;11.69;44.84
74913;BME280;63878;55.624;37.304;2022-10-16T12:26:00;100244.59;;;11.77;45.08
74913;BME280;63878;55.624;37.304;2022-10-16T12:28:30;100233.91;;;11.81;45.84
74913;BME280;63878;55.624;37.304;2022-10-16T12:31:08;100240.56;;;12.03;50.79
74913;BME280;63878;55.624;37.304;2022-10-16T12:33:40;100251.78;;;11.90;48.10
74913;BME280;63878;55.624;37.304;2022-10-16T12:36:15;100237.44;;;11.96;49.57
74913;BME280;63878;55.624;37.304;2022-10-16T12:38:51;100250.06;;;11.89;45.15
74913;BME280;63878;55.624;37.304;2022-10-16T12:41:35;100244.72;;;12.07;48.44
74913;BME280;63878;55.624;37.304;2022-10-16T12:44:22;100238.66;;;11.90;49.83
74913;BME280;63878;55.624;37.304;2022-10-16T12:46:48;100234.78;;;12.27;56.07
74913;BME280;63878;55.624;37.304;2022-10-16T12:51:41;100237.94;;;12.03;50.13
74913;BME280;63878;55.624;37.304;2022-10-16T13:07:53;100246.78;;;11.86;43.47
74913;BME280;63878;55.624;37.304;2022-10-16T13:10:35;100243.91;;;11.90;44.39
74913;BME280;63878;55.624;37.304;2022-10-16T13:16:22;100231.31;;;12.27;49.10
74913;BME280;63878;55.624;37.304;2022-10-16T13:19:26;100248.81;;;12.42;47.41
74913;BME280;63878;55.624;37.304;2022-10-16T13:25:13;100243.69;;;12.25;46.26
74913;BME280;63878;55.624;37.304;2022-10-16T13:27:58;100237.34;;;12.13;44.95
74913;BME280;63878;55.624;37.304;2022-10-16T13:30:28;100246.25;;;11.95;48.35
74913;BME280;63878;55.624;37.304;2022-10-16T13:33:19;100240.50;;;12.04;45.84
74913;BME280;63878;55.624;37.304;2022-10-16T13:35:51;100235.31;;;12.03;46.62
74913;BME280;63878;55.624;37.304;2022-10-16T13:38:23;100240.41;;;12.06;54.10
74913;BME280;63878;55.624;37.304;2022-10-16T13:40:53;100240.00;;;11.97;45.91
74913;BME280;63878;55.624;37.304;2022-10-16T13:43:22;100232.50;;;11.74;45.19
74913;BME280;63878;55.624;37.304;2022-10-16T13:46:02;100239.44;;;11.59;44.20
74913;BME280;63878;55.624;37.304;2022-10-16T13:48:29;100236.41;;;11.67;49.12
74913;BME280;63878;55.624;37.304;2022-10-16T13:53:24;100234.34;;;11.56;49.15
74913;BME280;63878;55.624;37.304;2022-10-16T13:55:50;100237.81;;;11.41;46.14
74913;BME280;63878;55.624;37.304;2022-10-16T13:58:16;100237.47;;;11.31;45.85
74913;BME280;63878;55.624;37.304;2022-10-16T14:01:04;100231.22;;;11.50;49.92
74913;BME280;63878;55.624;37.304;2022-10-16T14:03:32;100247.31;;;11.43;46.19
74913;BME280;63878;55.624;37.304;2022-10-16T14:06:02;100239.50;;;11.42;49.38
74913;BME280;63878;55.624;37.304;2022-10-16T14:08:29;100238.44;;;11.29;48.08
74913;BME280;63878;55.624;37.304;2022-10-16T14:10:57;100239.38;;;11.28;50.17
74913;BME280;63878;55.624;37.304;2022-10-16T14:13:37;100232.22;;;11.31;48.01
74913;BME280;63878;55.624;37.304;2022-10-16T14:16:10;100238.84;;;11.38;51.43
74913;BME280;63878;55.624;37.304;2022-10-16T14:18:37;100241.69;;;11.34;47.83
74913;BME280;63878;55.624;37.304;2022-10-16T14:21:11;100244.88;;;11.23;47.01
74913;BME280;63878;55.624;37.304;2022-10-16T14:23:39;100239.72;;;11.22;46.66
74913;BME280;63878;55.624;37.304;2022-10-16T14:26:17;100238.75;;;11.07;46.32
74913;BME280;63878;55.624;37.304;2022-10-16T14:28:45;100242.28;;;11.06;49.53
74913;BME280;63878;55.624;37.304;2022-10-16T14:31:37;100238.44;;;11.13;49.09
74913;BME280;63878;55.624;37.304;2022-10-16T14:34:04;100230.13;;;11.05;52.14
74913;BME280;63878;55.624;37.304;2022-10-16T14:36:30;100237.91;;;10.89;48.04
74913;BME280;63878;55.624;37.304;2022-10-16T14:39:03;100235.91;;;10.94;48.25